This is the latest recevied weather packets stored in our database for station/object SQ4LOL-13. If no packets are shown the sender has not sent any weather packets the latest 10 day(s).
| Time | Temp. | Humidity | Pressure | Rain* | Wind** | Luminosity | Snow |
|---|---|---|---|---|---|---|---|
| 1777700844 | 10.56° C | 72% | 1006.9 hPa | 0 mm | - | - | - |
| 1777699639 | 9.44° C | 76% | 1006.9 hPa | 0 mm | - | - | - |
| 1777698435 | 8.89° C | 79% | 1007 hPa | 0 mm | - | - | - |
| 1777688200 | 6.67° C | 76% | 1007 hPa | 0 mm | - | - | - |
| 1777687598 | 6.67° C | 76% | 1007.1 hPa | 0 mm | - | - | - |
| 1777685792 | 7.22° C | 76% | 1007.3 hPa | 0 mm | - | - | - |
| 1777685191 | 7.22° C | 75% | 1007.3 hPa | 0 mm | - | - | - |
| 1777684007 | 7.22° C | 75% | 1007.2 hPa | 0 mm | - | - | - |
| 1777681017 | 7.78° C | 74% | 1007.3 hPa | 0 mm | - | - | - |
| 1777679170 | 7.78° C | 73% | 1007.5 hPa | 0 mm | - | - | - |
| 1777678568 | 7.78° C | 73% | 1007.6 hPa | 0 mm | - | - | - |
| 1777676160 | 8.33° C | 72% | 1007.5 hPa | 0 mm | - | - | - |
| 1777671966 | 8.89° C | 69% | 1007.5 hPa | 0 mm | - | - | - |
| 1777670743 | 8.89° C | 68% | 1007.4 hPa | 0 mm | - | - | - |
| 1777669578 | 9.44° C | 68% | 1007.2 hPa | 0 mm | - | - | - |
| 1777667732 | 10.56° C | 64% | 1007.4 hPa | 0 mm | - | - | - |
| 1777659607 | 14.44° C | 53% | 1006.8 hPa | 0 mm | - | - | - |
| 1777655391 | 16.67° C | 49% | 1006.5 hPa | 0 mm | - | - | - |
| 1777652984 | 17.22° C | 47% | 1006.4 hPa | 0 mm | - | - | - |
| 1777649973 | 18.33° C | 45% | 1006.6 hPa | 0 mm | - | - | - |
| 1777639740 | 17.22° C | 50% | 1007.5 hPa | 0 mm | - | - | - |
| 1777639139 | 16.67° C | 52% | 1007.5 hPa | 0 mm | - | - | - |
| 1777624690 | 12.22° C | 60% | 1008 hPa | 0 mm | - | - | - |
| 1777624087 | 12.22° C | 59% | 1007.9 hPa | 0 mm | - | - | - |
| 1777623485 | 12.22° C | 60% | 1007.9 hPa | 0 mm | - | - | - |
* Rain latest hour (hover to see other rain measurements)
** Current wind speed in m/s (hover to see current wind gust speed)